sensor_id;sensor_type;location;lat;lon;timestamp;pressure;altitude;pressure_sealevel;temperature;humidity
74435;BME280;62867;52.038;29.256;2022-11-25T00:04:15;1020.5;;;3.3;71.9
74435;BME280;62867;52.038;29.256;2022-11-25T00:09:13;1020.5;;;3.3;71.8
74435;BME280;62867;52.038;29.256;2022-11-25T00:14:05;1020.5;;;3.3;72.1
74435;BME280;62867;52.038;29.256;2022-11-25T00:19:15;1020.5;;;3.3;72.1
74435;BME280;62867;52.038;29.256;2022-11-25T00:24:05;1020.6;;;3.4;72.1
74435;BME280;62867;52.038;29.256;2022-11-25T00:29:06;1020.7;;;3.4;72
74435;BME280;62867;52.038;29.256;2022-11-25T00:34:05;1020.8;;;3.4;71.9
74435;BME280;62867;52.038;29.256;2022-11-25T00:39:27;1020.9;;;3.4;71.9
74435;BME280;62867;52.038;29.256;2022-11-25T00:44:06;1020.9;;;3.4;71.8
74435;BME280;62867;52.038;29.256;2022-11-25T00:49:21;1020.9;;;3.4;71.6
74435;BME280;62867;52.038;29.256;2022-11-25T00:54:05;1020.9;;;3.4;71.8
74435;BME280;62867;52.038;29.256;2022-11-25T00:59:05;1020.9;;;3.4;71.8
74435;BME280;62867;52.038;29.256;2022-11-25T01:04:06;1021;;;3.4;71.7
74435;BME280;62867;52.038;29.256;2022-11-25T01:09:05;1021;;;3.4;71.9
74435;BME280;62867;52.038;29.256;2022-11-25T01:14:25;1021;;;3.4;72
74435;BME280;62867;52.038;29.256;2022-11-25T01:19:05;1021;;;3.4;72
74435;BME280;62867;52.038;29.256;2022-11-25T01:24:27;1021;;;3.4;72
74435;BME280;62867;52.038;29.256;2022-11-25T01:29:11;1021;;;3.5;71.9
74435;BME280;62867;52.038;29.256;2022-11-25T01:34:29;1021;;;3.5;71.8
74435;BME280;62867;52.038;29.256;2022-11-25T01:39:18;1021;;;3.5;71.9
74435;BME280;62867;52.038;29.256;2022-11-25T01:44:22;1021;;;3.5;71.7
74435;BME280;62867;52.038;29.256;2022-11-25T01:49:29;1021.1;;;3.5;71.6
74435;BME280;62867;52.038;29.256;2022-11-25T01:54:10;1021.1;;;3.5;71.6
74435;BME280;62867;52.038;29.256;2022-11-25T01:59:09;1021.2;;;3.4;71.5
74435;BME280;62867;52.038;29.256;2022-11-25T02:04:15;1021.2;;;3.4;71.8
74435;BME280;62867;52.038;29.256;2022-11-25T02:09:40;1021.1;;;3.4;71.9
74435;BME280;62867;52.038;29.256;2022-11-25T02:14:17;1021.1;;;3.5;72
74435;BME280;62867;52.038;29.256;2022-11-25T02:19:19;1021.1;;;3.5;71.9
74435;BME280;62867;52.038;29.256;2022-11-25T02:24:42;1021.2;;;3.5;71.9
74435;BME280;62867;52.038;29.256;2022-11-25T02:29:19;1021.1;;;3.5;72
74435;BME280;62867;52.038;29.256;2022-11-25T02:34:27;1021.2;;;3.5;71.9
74435;BME280;62867;52.038;29.256;2022-11-25T02:39:17;1021.3;;;3.5;71.9
74435;BME280;62867;52.038;29.256;2022-11-25T02:44:19;1021.3;;;3.5;71.9
74435;BME280;62867;52.038;29.256;2022-11-25T02:49:09;1021.3;;;3.5;71.6
74435;BME280;62867;52.038;29.256;2022-11-25T02:54:25;1021.4;;;3.5;71.8
74435;BME280;62867;52.038;29.256;2022-11-25T02:59:27;1021.4;;;3.5;71.9
74435;BME280;62867;52.038;29.256;2022-11-25T03:04:17;1021.4;;;3.5;71.8
74435;BME280;62867;52.038;29.256;2022-11-25T03:09:53;1021.4;;;3.5;71.9
74435;BME280;62867;52.038;29.256;2022-11-25T03:14:09;1021.5;;;3.5;72
74435;BME280;62867;52.038;29.256;2022-11-25T03:19:19;1021.5;;;3.5;72.2
74435;BME280;62867;52.038;29.256;2022-11-25T03:24:19;1021.5;;;3.5;72.1
74435;BME280;62867;52.038;29.256;2022-11-25T03:29:17;1021.5;;;3.5;72.1
74435;BME280;62867;52.038;29.256;2022-11-25T03:34:09;1021.4;;;3.5;72
74435;BME280;62867;52.038;29.256;2022-11-25T03:39:09;1021.5;;;3.5;72
74435;BME280;62867;52.038;29.256;2022-11-25T03:44:09;1021.5;;;3.5;71.9
74435;BME280;62867;52.038;29.256;2022-11-25T03:49:09;1021.5;;;3.5;72
74435;BME280;62867;52.038;29.256;2022-11-25T03:54:09;1021.6;;;3.5;72.1
74435;BME280;62867;52.038;29.256;2022-11-25T03:59:09;1021.7;;;3.5;72.1
74435;BME280;62867;52.038;29.256;2022-11-25T04:04:09;1021.7;;;3.5;72.2
74435;BME280;62867;52.038;29.256;2022-11-25T04:09:09;1021.8;;;3.5;72.2
74435;BME280;62867;52.038;29.256;2022-11-25T04:14:09;1021.8;;;3.5;72.5
74435;BME280;62867;52.038;29.256;2022-11-25T04:19:29;1021.9;;;3.5;72.5
74435;BME280;62867;52.038;29.256;2022-11-25T04:24:09;1021.9;;;3.5;72.4
74435;BME280;62867;52.038;29.256;2022-11-25T04:29:29;1021.9;;;3.5;72.4
74435;BME280;62867;52.038;29.256;2022-11-25T04:34:19;1021.9;;;3.5;72.4
74435;BME280;62867;52.038;29.256;2022-11-25T04:39:19;1021.9;;;3.5;72.3
74435;BME280;62867;52.038;29.256;2022-11-25T04:44:09;1021.9;;;3.5;72.3
74435;BME280;62867;52.038;29.256;2022-11-25T04:49:27;1021.9;;;3.5;72.1
74435;BME280;62867;52.038;29.256;2022-11-25T04:54:41;1022;;;3.5;72.3
74435;BME280;62867;52.038;29.256;2022-11-25T04:59:17;1022.1;;;3.5;72.2
74435;BME280;62867;52.038;29.256;2022-11-25T05:04:21;1022.1;;;3.5;72.2
74435;BME280;62867;52.038;29.256;2022-11-25T05:09:27;1022.2;;;3.5;72.4
74435;BME280;62867;52.038;29.256;2022-11-25T05:14:07;1022.2;;;3.5;72.4
74435;BME280;62867;52.038;29.256;2022-11-25T05:19:07;1022.3;;;3.5;72.5
74435;BME280;62867;52.038;29.256;2022-11-25T05:24:07;1022.3;;;3.5;72.4
74435;BME280;62867;52.038;29.256;2022-11-25T05:29:19;1022.3;;;3.5;72.5
74435;BME280;62867;52.038;29.256;2022-11-25T05:34:17;1022.3;;;3.6;72.4
74435;BME280;62867;52.038;29.256;2022-11-25T05:39:09;1022.4;;;3.6;72.3
74435;BME280;62867;52.038;29.256;2022-11-25T05:44:27;1022.4;;;3.5;72.1
74435;BME280;62867;52.038;29.256;2022-11-25T05:49:19;1022.5;;;3.5;72.1
74435;BME280;62867;52.038;29.256;2022-11-25T05:54:09;1022.6;;;3.5;72.1
74435;BME280;62867;52.038;29.256;2022-11-25T05:59:31;1022.7;;;3.5;72.4
74435;BME280;62867;52.038;29.256;2022-11-25T06:04:17;1022.8;;;3.5;72.4
74435;BME280;62867;52.038;29.256;2022-11-25T06:09:09;1022.8;;;3.6;72.4
74435;BME280;62867;52.038;29.256;2022-11-25T06:14:41;1022.8;;;3.6;72.3
74435;BME280;62867;52.038;29.256;2022-11-25T06:19:09;1023;;;3.7;72.3
74435;BME280;62867;52.038;29.256;2022-11-25T06:24:09;1023;;;3.7;72.2
74435;BME280;62867;52.038;29.256;2022-11-25T06:29:09;1023;;;3.7;72.1
74435;BME280;62867;52.038;29.256;2022-11-25T06:34:09;1023;;;3.8;72.2
74435;BME280;62867;52.038;29.256;2022-11-25T06:39:09;1023.1;;;3.8;72
74435;BME280;62867;52.038;29.256;2022-11-25T06:44:19;1023.2;;;3.8;71.7
74435;BME280;62867;52.038;29.256;2022-11-25T06:49:41;1023.2;;;3.8;71.7
74435;BME280;62867;52.038;29.256;2022-11-25T06:54:09;1023.2;;;3.8;71.7
74435;BME280;62867;52.038;29.256;2022-11-25T06:59:09;1023.3;;;3.9;71.4
74435;BME280;62867;52.038;29.256;2022-11-25T07:04:17;1023.3;;;4;71.5
74435;BME280;62867;52.038;29.256;2022-11-25T07:09:19;1023.3;;;4.1;71.2
74435;BME280;62867;52.038;29.256;2022-11-25T07:14:19;1023.3;;;4.1;71.1
74435;BME280;62867;52.038;29.256;2022-11-25T07:19:19;1023.4;;;4.2;71.1
74435;BME280;62867;52.038;29.256;2022-11-25T07:24:10;1023.4;;;4.3;70.9
74435;BME280;62867;52.038;29.256;2022-11-25T07:29:23;1023.4;;;4.4;70.9
74435;BME280;62867;52.038;29.256;2022-11-25T07:34:10;1023.5;;;4.4;70.6
74435;BME280;62867;52.038;29.256;2022-11-25T07:39:10;1023.5;;;4.4;70.3
74435;BME280;62867;52.038;29.256;2022-11-25T07:44:15;1023.6;;;4.4;69.9
74435;BME280;62867;52.038;29.256;2022-11-25T07:49:20;1023.6;;;4.4;69.9
74435;BME280;62867;52.038;29.256;2022-11-25T07:54:11;1023.6;;;4.4;70.1
74435;BME280;62867;52.038;29.256;2022-11-25T07:59:11;1023.6;;;4.4;70
74435;BME280;62867;52.038;29.256;2022-11-25T08:04:10;1023.7;;;4.4;70
74435;BME280;62867;52.038;29.256;2022-11-25T08:09:10;1023.8;;;4.4;70.2
74435;BME280;62867;52.038;29.256;2022-11-25T08:14:19;1023.8;;;4.4;70.1
74435;BME280;62867;52.038;29.256;2022-11-25T08:19:29;1023.9;;;4.5;70.2
74435;BME280;62867;52.038;29.256;2022-11-25T08:24:10;1023.9;;;4.5;70.1
74435;BME280;62867;52.038;29.256;2022-11-25T08:29:10;1023.9;;;4.6;70
74435;BME280;62867;52.038;29.256;2022-11-25T08:34:27;1024;;;4.6;69.9
74435;BME280;62867;52.038;29.256;2022-11-25T08:39:09;1024.1;;;4.6;69.5
74435;BME280;62867;52.038;29.256;2022-11-25T08:44:09;1024.1;;;4.6;69.6
74435;BME280;62867;52.038;29.256;2022-11-25T08:49:10;1024.1;;;4.5;69.5
74435;BME280;62867;52.038;29.256;2022-11-25T08:54:19;1024.1;;;4.6;69.5
74435;BME280;62867;52.038;29.256;2022-11-25T08:59:17;1024.1;;;4.6;69.5
74435;BME280;62867;52.038;29.256;2022-11-25T09:04:53;1024.1;;;4.7;69.5
74435;BME280;62867;52.038;29.256;2022-11-25T09:09:17;1024.1;;;4.8;69.5
74435;BME280;62867;52.038;29.256;2022-11-25T09:14:09;1024.1;;;4.8;69.6
74435;BME280;62867;52.038;29.256;2022-11-25T09:19:19;1024.2;;;4.8;69.6
74435;BME280;62867;52.038;29.256;2022-11-25T09:24:09;1024.2;;;4.9;69.5
74435;BME280;62867;52.038;29.256;2022-11-25T09:29:19;1024.2;;;4.9;69.4
74435;BME280;62867;52.038;29.256;2022-11-25T09:34:09;1024.3;;;4.9;69.3
74435;BME280;62867;52.038;29.256;2022-11-25T09:39:09;1024.3;;;4.9;69
74435;BME280;62867;52.038;29.256;2022-11-25T09:44:12;1024.2;;;4.8;69.1
74435;BME280;62867;52.038;29.256;2022-11-25T09:49:13;1024.2;;;4.8;69.5
74435;BME280;62867;52.038;29.256;2022-11-25T09:54:33;1024.2;;;4.8;69.3
74435;BME280;62867;52.038;29.256;2022-11-25T09:59:27;1024.3;;;4.8;69.3
74435;BME280;62867;52.038;29.256;2022-11-25T10:04:10;1024.3;;;4.8;69.7
74435;BME280;62867;52.038;29.256;2022-11-25T10:09:21;1024.3;;;5;69.4
74435;BME280;62867;52.038;29.256;2022-11-25T10:14:11;1024.4;;;5;69.1
74435;BME280;62867;52.038;29.256;2022-11-25T10:19:25;1024.4;;;5.1;69.2
74435;BME280;62867;52.038;29.256;2022-11-25T10:24:11;1024.5;;;5;69.2
74435;BME280;62867;52.038;29.256;2022-11-25T10:29:21;1024.5;;;5;69.3
74435;BME280;62867;52.038;29.256;2022-11-25T10:34:10;1024.4;;;5;69.2
74435;BME280;62867;52.038;29.256;2022-11-25T10:39:10;1024.4;;;4.9;69.2
74435;BME280;62867;52.038;29.256;2022-11-25T10:44:11;1024.5;;;4.9;69.2
74435;BME280;62867;52.038;29.256;2022-11-25T10:49:10;1024.5;;;4.7;69.7
74435;BME280;62867;52.038;29.256;2022-11-25T10:54:11;1024.5;;;4.6;69.9
74435;BME280;62867;52.038;29.256;2022-11-25T10:59:21;1024.5;;;4.6;70.3
74435;BME280;62867;52.038;29.256;2022-11-25T11:04:27;1024.5;;;4.7;70.2
74435;BME280;62867;52.038;29.256;2022-11-25T11:09:28;1024.4;;;4.7;70.4
74435;BME280;62867;52.038;29.256;2022-11-25T11:14:11;1024.4;;;4.8;70.1
74435;BME280;62867;52.038;29.256;2022-11-25T11:19:19;1024.5;;;4.9;70
74435;BME280;62867;52.038;29.256;2022-11-25T11:24:21;1024.5;;;4.9;69.8
74435;BME280;62867;52.038;29.256;2022-11-25T11:29:40;1024.5;;;4.9;69.6
74435;BME280;62867;52.038;29.256;2022-11-25T11:34:28;1024.5;;;4.9;69.6
74435;BME280;62867;52.038;29.256;2022-11-25T11:39:16;1024.5;;;4.9;69.7
74435;BME280;62867;52.038;29.256;2022-11-25T11:44:19;1024.5;;;4.9;69.8
74435;BME280;62867;52.038;29.256;2022-11-25T11:49:15;1024.5;;;4.9;69.7
74435;BME280;62867;52.038;29.256;2022-11-25T11:54:11;1024.5;;;5;69.5
74435;BME280;62867;52.038;29.256;2022-11-25T11:59:33;1024.6;;;5;69.7
74435;BME280;62867;52.038;29.256;2022-11-25T12:04:18;1024.7;;;4.9;69.6
74435;BME280;62867;52.038;29.256;2022-11-25T12:09:18;1024.7;;;4.9;70
74435;BME280;62867;52.038;29.256;2022-11-25T12:14:22;1024.7;;;4.8;70.1
74435;BME280;62867;52.038;29.256;2022-11-25T12:19:40;1024.8;;;4.8;70.1
74435;BME280;62867;52.038;29.256;2022-11-25T12:24:12;1024.8;;;4.8;70.1
74435;BME280;62867;52.038;29.256;2022-11-25T12:29:19;1024.9;;;4.7;70.1
74435;BME280;62867;52.038;29.256;2022-11-25T12:34:10;1024.9;;;4.6;70.1
74435;BME280;62867;52.038;29.256;2022-11-25T12:39:11;1024.9;;;4.6;70.2
74435;BME280;62867;52.038;29.256;2022-11-25T12:44:18;1025;;;4.5;70.5
74435;BME280;62867;52.038;29.256;2022-11-25T12:49:22;1025;;;4.5;71
74435;BME280;62867;52.038;29.256;2022-11-25T12:54:23;1025.1;;;4.5;71.1
74435;BME280;62867;52.038;29.256;2022-11-25T12:59:31;1025.1;;;4.5;71
74435;BME280;62867;52.038;29.256;2022-11-25T13:04:22;1025.1;;;4.5;70.9
74435;BME280;62867;52.038;29.256;2022-11-25T13:09:35;1025.1;;;4.5;70.9
74435;BME280;62867;52.038;29.256;2022-11-25T13:14:24;1025;;;4.5;71
74435;BME280;62867;52.038;29.256;2022-11-25T13:19:10;1025.1;;;4.4;71.3
74435;BME280;62867;52.038;29.256;2022-11-25T13:24:30;1025.1;;;4.4;71.3
74435;BME280;62867;52.038;29.256;2022-11-25T13:29:50;1025.1;;;4.4;71.2
74435;BME280;62867;52.038;29.256;2022-11-25T13:34:28;1025.1;;;4.3;71.3
74435;BME280;62867;52.038;29.256;2022-11-25T13:39:12;1025.2;;;4.3;71.3
74435;BME280;62867;52.038;29.256;2022-11-25T13:44:20;1025.2;;;4.2;71.6
74435;BME280;62867;52.038;29.256;2022-11-25T13:49:26;1025.3;;;4.2;71.9
74435;BME280;62867;52.038;29.256;2022-11-25T13:54:20;1025.3;;;4.2;72.1
74435;BME280;62867;52.038;29.256;2022-11-25T13:59:29;1025.5;;;4.2;72.1
74435;BME280;62867;52.038;29.256;2022-11-25T14:04:25;1025.5;;;4.2;71.9
74435;BME280;62867;52.038;29.256;2022-11-25T14:09:21;1025.6;;;4.2;72
74435;BME280;62867;52.038;29.256;2022-11-25T14:14:16;1025.6;;;4.2;72.1
74435;BME280;62867;52.038;29.256;2022-11-25T14:19:26;1025.6;;;4.2;72.1
74435;BME280;62867;52.038;29.256;2022-11-25T14:24:27;1025.6;;;4.1;72.3
74435;BME280;62867;52.038;29.256;2022-11-25T14:29:24;1025.6;;;4.1;72.4
74435;BME280;62867;52.038;29.256;2022-11-25T14:34:48;1025.6;;;4.1;72.3
74435;BME280;62867;52.038;29.256;2022-11-25T14:39:12;1025.6;;;4.1;72.4
74435;BME280;62867;52.038;29.256;2022-11-25T14:44:21;1025.7;;;4;72.3
74435;BME280;62867;52.038;29.256;2022-11-25T14:49:10;1025.7;;;4;72.3
74435;BME280;62867;52.038;29.256;2022-11-25T14:54:22;1025.8;;;4;72.4
74435;BME280;62867;52.038;29.256;2022-11-25T14:59:22;1025.8;;;4;72.7
74435;BME280;62867;52.038;29.256;2022-11-25T15:04:11;1025.8;;;4.1;72.8
74435;BME280;62867;52.038;29.256;2022-11-25T15:09:21;1025.8;;;4.1;72.6
74435;BME280;62867;52.038;29.256;2022-11-25T15:14:10;1025.7;;;4.1;72.6
74435;BME280;62867;52.038;29.256;2022-11-25T15:19:23;1025.8;;;4.1;72.6
74435;BME280;62867;52.038;29.256;2022-11-25T15:24:22;1025.8;;;4.1;72.5
74435;BME280;62867;52.038;29.256;2022-11-25T15:29:28;1025.8;;;4.1;72.3
74435;BME280;62867;52.038;29.256;2022-11-25T15:34:11;1025.8;;;4;72.4
74435;BME280;62867;52.038;29.256;2022-11-25T15:39:13;1025.9;;;4;72.6
74435;BME280;62867;52.038;29.256;2022-11-25T15:44:30;1025.9;;;4;72.5
74435;BME280;62867;52.038;29.256;2022-11-25T15:49:18;1025.9;;;4;72.7
74435;BME280;62867;52.038;29.256;2022-11-25T15:54:18;1025.9;;;4;72.8
74435;BME280;62867;52.038;29.256;2022-11-25T16:00:01;1025.8;;;4;72.9
74435;BME280;62867;52.038;29.256;2022-11-25T16:04:11;1025.9;;;4;73
74435;BME280;62867;52.038;29.256;2022-11-25T16:09:15;1025.8;;;4;73
74435;BME280;62867;52.038;29.256;2022-11-25T16:14:33;1025.8;;;4;73
74435;BME280;62867;52.038;29.256;2022-11-25T16:19:32;1025.8;;;4.1;72.9
74435;BME280;62867;52.038;29.256;2022-11-25T16:24:12;1025.9;;;4;72.9
74435;BME280;62867;52.038;29.256;2022-11-25T16:29:18;1025.9;;;4;72.9
74435;BME280;62867;52.038;29.256;2022-11-25T16:34:20;1025.9;;;4;72.9
74435;BME280;62867;52.038;29.256;2022-11-25T16:39:30;1025.9;;;3.9;73.2
74435;BME280;62867;52.038;29.256;2022-11-25T16:44:11;1025.9;;;3.9;73
74435;BME280;62867;52.038;29.256;2022-11-25T16:49:10;1026;;;3.9;73.2
74435;BME280;62867;52.038;29.256;2022-11-25T16:54:10;1026;;;3.9;73.2
74435;BME280;62867;52.038;29.256;2022-11-25T16:59:46;1026;;;4;73.1
74435;BME280;62867;52.038;29.256;2022-11-25T17:04:10;1026;;;4;73.1
74435;BME280;62867;52.038;29.256;2022-11-25T17:09:18;1026;;;4;73.1
74435;BME280;62867;52.038;29.256;2022-11-25T17:14:30;1026;;;4;73.3
74435;BME280;62867;52.038;29.256;2022-11-25T17:19:18;1026;;;4;73.2
74435;BME280;62867;52.038;29.256;2022-11-25T17:24:11;1026;;;4;73
74435;BME280;62867;52.038;29.256;2022-11-25T17:29:20;1026.1;;;4;72.8
74435;BME280;62867;52.038;29.256;2022-11-25T17:34:32;1026.1;;;3.9;72.8
74435;BME280;62867;52.038;29.256;2022-11-25T17:39:28;1026.1;;;3.9;72.8
74435;BME280;62867;52.038;29.256;2022-11-25T17:44:11;1026.1;;;3.9;73.1
74435;BME280;62867;52.038;29.256;2022-11-25T17:49:23;1026.1;;;3.9;73.3
74435;BME280;62867;52.038;29.256;2022-11-25T17:54:22;1026.2;;;3.9;73.2
74435;BME280;62867;52.038;29.256;2022-11-25T17:59:19;1026.2;;;3.9;73.1
74435;BME280;62867;52.038;29.256;2022-11-25T18:04:20;1026.2;;;4;73.2
74435;BME280;62867;52.038;29.256;2022-11-25T18:09:18;1026.2;;;4;73.1
74435;BME280;62867;52.038;29.256;2022-11-25T18:14:10;1026.2;;;4;73.1
74435;BME280;62867;52.038;29.256;2022-11-25T18:19:22;1026.2;;;4;73.2
74435;BME280;62867;52.038;29.256;2022-11-25T18:24:10;1026.3;;;4;73.1
74435;BME280;62867;52.038;29.256;2022-11-25T18:29:11;1026.4;;;3.9;72.9
74435;BME280;62867;52.038;29.256;2022-11-25T18:34:28;1026.4;;;3.9;72.9
74435;BME280;62867;52.038;29.256;2022-11-25T18:39:32;1026.4;;;3.9;72.8
74435;BME280;62867;52.038;29.256;2022-11-25T18:44:12;1026.4;;;3.9;73
74435;BME280;62867;52.038;29.256;2022-11-25T18:49:18;1026.4;;;3.9;73.2
74435;BME280;62867;52.038;29.256;2022-11-25T18:54:10;1026.4;;;3.9;73.5
74435;BME280;62867;52.038;29.256;2022-11-25T18:59:19;1026.4;;;4;73.3
74435;BME280;62867;52.038;29.256;2022-11-25T19:04:24;1026.5;;;4;73.2
74435;BME280;62867;52.038;29.256;2022-11-25T19:09:10;1026.5;;;4;73.1
74435;BME280;62867;52.038;29.256;2022-11-25T19:14:11;1026.5;;;4;73.1
74435;BME280;62867;52.038;29.256;2022-11-25T19:19:11;1026.6;;;3.9;73
74435;BME280;62867;52.038;29.256;2022-11-25T19:24:10;1026.6;;;3.9;73
74435;BME280;62867;52.038;29.256;2022-11-25T19:29:19;1026.7;;;3.9;73
74435;BME280;62867;52.038;29.256;2022-11-25T19:34:10;1026.7;;;3.9;73
74435;BME280;62867;52.038;29.256;2022-11-25T19:39:11;1026.7;;;3.9;72.9
74435;BME280;62867;52.038;29.256;2022-11-25T19:44:20;1026.7;;;3.9;72.8
74435;BME280;62867;52.038;29.256;2022-11-25T19:49:11;1026.7;;;3.9;73.1
74435;BME280;62867;52.038;29.256;2022-11-25T19:54:18;1026.8;;;4;73
74435;BME280;62867;52.038;29.256;2022-11-25T19:59:10;1026.8;;;4;73
74435;BME280;62867;52.038;29.256;2022-11-25T20:04:40;1026.8;;;4;73
74435;BME280;62867;52.038;29.256;2022-11-25T20:09:10;1026.8;;;4;72.7
74435;BME280;62867;52.038;29.256;2022-11-25T20:14:10;1026.8;;;4;72.6
74435;BME280;62867;52.038;29.256;2022-11-25T20:19:20;1026.8;;;4;72.6
74435;BME280;62867;52.038;29.256;2022-11-25T20:24:30;1026.9;;;4;72.6
74435;BME280;62867;52.038;29.256;2022-11-25T20:29:13;1026.9;;;4;72.5
74435;BME280;62867;52.038;29.256;2022-11-25T20:34:10;1026.9;;;4;72.4
74435;BME280;62867;52.038;29.256;2022-11-25T20:39:11;1026.9;;;3.9;72.4
74435;BME280;62867;52.038;29.256;2022-11-25T20:44:18;1027;;;3.9;72.4
74435;BME280;62867;52.038;29.256;2022-11-25T20:49:15;1027;;;4;72.5
74435;BME280;62867;52.038;29.256;2022-11-25T20:54:18;1027.1;;;4;72.5
74435;BME280;62867;52.038;29.256;2022-11-25T20:59:12;1027.1;;;4;72.5
74435;BME280;62867;52.038;29.256;2022-11-25T21:04:10;1027;;;4;72.4
74435;BME280;62867;52.038;29.256;2022-11-25T21:09:13;1027.1;;;4;72.3
74435;BME280;62867;52.038;29.256;2022-11-25T21:14:10;1027.1;;;4;72.3
74435;BME280;62867;52.038;29.256;2022-11-25T21:19:20;1027.1;;;3.9;72.3
74435;BME280;62867;52.038;29.256;2022-11-25T21:24:13;1027.1;;;3.9;72.3
74435;BME280;62867;52.038;29.256;2022-11-25T21:29:11;1027.1;;;3.9;72.3
74435;BME280;62867;52.038;29.256;2022-11-25T21:34:18;1027.1;;;3.9;72.2
74435;BME280;62867;52.038;29.256;2022-11-25T21:39:22;1027.1;;;3.9;72.3
74435;BME280;62867;52.038;29.256;2022-11-25T21:44:20;1027;;;3.9;72.4
74435;BME280;62867;52.038;29.256;2022-11-25T21:49:10;1027;;;3.9;72.4
74435;BME280;62867;52.038;29.256;2022-11-25T21:54:10;1027;;;3.9;72.4
74435;BME280;62867;52.038;29.256;2022-11-25T21:59:15;1027;;;3.9;72.7
74435;BME280;62867;52.038;29.256;2022-11-25T22:04:17;1027;;;4;72.5
74435;BME280;62867;52.038;29.256;2022-11-25T22:09:06;1027;;;4;72.4
74435;BME280;62867;52.038;29.256;2022-11-25T22:14:08;1027;;;4;72.4
74435;BME280;62867;52.038;29.256;2022-11-25T22:19:24;1027.1;;;3.9;72.2
74435;BME280;62867;52.038;29.256;2022-11-25T22:24:14;1027.1;;;3.9;72.3
74435;BME280;62867;52.038;29.256;2022-11-25T22:29:29;1027.1;;;3.9;72.2
74435;BME280;62867;52.038;29.256;2022-11-25T22:34:09;1027.1;;;3.9;72.3
74435;BME280;62867;52.038;29.256;2022-11-25T22:39:17;1027.2;;;3.9;72.4
74435;BME280;62867;52.038;29.256;2022-11-25T22:44:23;1027.2;;;3.9;72.3
74435;BME280;62867;52.038;29.256;2022-11-25T22:49:28;1027.2;;;3.9;72.5
74435;BME280;62867;52.038;29.256;2022-11-25T22:54:07;1027.2;;;3.9;72.4
74435;BME280;62867;52.038;29.256;2022-11-25T22:59:22;1027.2;;;3.9;72.4
74435;BME280;62867;52.038;29.256;2022-11-25T23:04:16;1027.2;;;3.9;72.6
74435;BME280;62867;52.038;29.256;2022-11-25T23:09:40;1027.2;;;4;72.4
74435;BME280;62867;52.038;29.256;2022-11-25T23:14:14;1027.2;;;4;72.3
74435;BME280;62867;52.038;29.256;2022-11-25T23:19:16;1027.2;;;3.9;72.3
74435;BME280;62867;52.038;29.256;2022-11-25T23:24:08;1027.2;;;3.9;72.2
74435;BME280;62867;52.038;29.256;2022-11-25T23:29:48;1027.2;;;3.9;72
74435;BME280;62867;52.038;29.256;2022-11-25T23:34:06;1027.2;;;3.8;72
74435;BME280;62867;52.038;29.256;2022-11-25T23:39:10;1027.2;;;3.8;72.2
74435;BME280;62867;52.038;29.256;2022-11-25T23:44:27;1027.2;;;3.8;72.2
74435;BME280;62867;52.038;29.256;2022-11-25T23:49:06;1027.2;;;3.8;72.2
74435;BME280;62867;52.038;29.256;2022-11-25T23:54:24;1027.2;;;3.8;72.5
74435;BME280;62867;52.038;29.256;2022-11-25T23:59:16;1027.2;;;3.8;72.4
